createdAt,value
2023-03-06T00:08:47.780Z,5.50
2023-03-06T00:23:50.087Z,5.40
2023-03-06T00:38:52.481Z,5.50
2023-03-06T00:53:54.768Z,5.60
2023-03-06T01:08:57.350Z,5.50
2023-03-06T01:24:00.918Z,5.30
2023-03-06T01:39:03.738Z,5.10
2023-03-06T01:54:12.394Z,5.20
2023-03-06T02:09:16.097Z,5.10
2023-03-06T02:24:39.090Z,5.40
2023-03-06T02:39:46.657Z,5.20
2023-03-06T02:54:50.844Z,5.30
2023-03-06T03:09:53.246Z,5.30
2023-03-06T03:24:56.228Z,5.00
2023-03-06T03:39:59.503Z,5.00
2023-03-06T03:55:02.912Z,5.00
2023-03-06T04:10:07.755Z,4.90
2023-03-06T04:25:11.001Z,4.80
2023-03-06T04:40:19.421Z,5.20
2023-03-06T04:55:22.063Z,5.00
2023-03-06T05:10:24.645Z,5.00
2023-03-06T05:25:27.030Z,5.40
2023-03-06T05:40:29.453Z,4.90
2023-03-06T05:55:31.844Z,4.60
2023-03-06T06:10:34.158Z,4.90
2023-03-06T06:25:37.501Z,4.80
2023-03-06T06:40:39.814Z,4.80
2023-03-06T06:55:42.877Z,4.30
2023-03-06T07:10:45.321Z,4.50
2023-03-06T07:25:47.765Z,4.40
2023-03-06T07:40:51.341Z,4.40
2023-03-06T07:55:54.041Z,4.50
2023-03-06T08:10:56.416Z,4.40
2023-03-06T08:26:00.751Z,4.70
2023-03-06T08:41:03.390Z,4.70
2023-03-06T08:56:07.193Z,4.80
2023-03-06T09:11:11.884Z,4.90
2023-03-06T09:26:14.208Z,4.90
2023-03-06T09:41:26.317Z,5.00
2023-03-06T09:56:34.049Z,6.20
2023-03-06T10:11:52.695Z,5.40
2023-03-06T10:27:10.370Z,5.30
2023-03-06T10:42:13.277Z,5.40
2023-03-06T10:57:31.611Z,5.50
2023-03-06T11:12:39.344Z,5.50
2023-03-06T11:27:45.097Z,5.40
2023-03-06T11:42:54.224Z,5.60
2023-03-06T11:58:07.310Z,5.70
2023-03-06T12:13:37.075Z,5.70
2023-03-06T12:28:57.087Z,5.90
2023-03-06T12:44:25.128Z,5.90
2023-03-06T12:59:47.879Z,6.00
2023-03-06T13:14:56.721Z,6.00
2023-03-06T13:30:19.697Z,6.10
2023-03-06T13:45:29.894Z,6.00
2023-03-06T14:00:50.971Z,6.20
2023-03-06T14:15:55.036Z,6.30
2023-03-06T14:30:59.611Z,6.30
2023-03-06T14:46:08.913Z,6.50
2023-03-06T15:01:13.239Z,6.70
2023-03-06T15:16:18.450Z,6.60
2023-03-06T15:31:23.533Z,6.80
2023-03-06T15:46:25.926Z,7.00
2023-03-06T16:01:28.417Z,6.60
2023-03-06T16:16:35.559Z,6.50
2023-03-06T16:31:37.942Z,6.20
2023-03-06T16:46:42.638Z,6.10
2023-03-06T17:01:45.013Z,6.10
2023-03-06T17:16:47.477Z,5.90
2023-03-06T17:31:49.793Z,5.90
2023-03-06T17:46:52.204Z,5.90
2023-03-06T18:01:58.745Z,5.90
2023-03-06T18:17:01.087Z,5.80
2023-03-06T18:32:03.495Z,5.80
2023-03-06T18:47:06.379Z,5.80
2023-03-06T19:02:10.834Z,5.60
2023-03-06T19:17:13.139Z,5.60
2023-03-06T19:32:15.586Z,5.50
2023-03-06T19:47:18.045Z,5.50
2023-03-06T20:02:26.266Z,5.40
2023-03-06T20:17:28.612Z,5.20
2023-03-06T20:32:31.064Z,5.70
2023-03-06T20:47:33.530Z,5.00
2023-03-06T21:02:36.229Z,4.90
2023-03-06T21:17:38.833Z,4.90
2023-03-06T21:32:41.278Z,5.00
2023-03-06T21:47:43.645Z,5.00
2023-03-06T22:02:46.858Z,4.90
2023-03-06T22:17:49.444Z,4.80
2023-03-06T22:32:54.769Z,4.70
2023-03-06T22:48:09.087Z,4.60
2023-03-06T23:03:13.013Z,4.60
2023-03-06T23:18:15.617Z,4.50
2023-03-06T23:33:38.743Z,4.40
2023-03-06T23:48:42.020Z,4.30
